createdAt,value
2018-12-19T00:01:14.495Z,1.40
2018-12-19T00:03:41.892Z,1.40
2018-12-19T00:06:09.303Z,1.40
2018-12-19T00:08:36.817Z,1.50
2018-12-19T00:11:04.285Z,1.50
2018-12-19T00:13:31.728Z,1.30
2018-12-19T00:15:59.236Z,1.30
2018-12-19T00:18:26.636Z,1.40
2018-12-19T00:20:54.044Z,1.50
2018-12-19T00:23:21.448Z,1.60
2018-12-19T00:25:48.855Z,1.70
2018-12-19T00:28:16.229Z,1.70
2018-12-19T00:30:43.692Z,1.60
2018-12-19T00:33:11.080Z,1.60
2018-12-19T00:35:38.547Z,1.50
2018-12-19T00:38:05.941Z,1.50
2018-12-19T00:40:33.360Z,1.60
2018-12-19T00:43:00.731Z,1.60
2018-12-19T00:45:28.140Z,1.70
2018-12-19T00:47:55.584Z,1.70
2018-12-19T00:50:23.023Z,1.70
2018-12-19T00:52:50.410Z,1.70
2018-12-19T00:55:17.956Z,1.70
2018-12-19T00:57:45.370Z,1.70
2018-12-19T01:00:13.430Z,1.70
2018-12-19T01:02:40.854Z,1.80
2018-12-19T01:05:08.244Z,1.70
2018-12-19T01:07:35.667Z,1.70
2018-12-19T01:10:03.584Z,1.70
2018-12-19T01:12:30.976Z,1.70
2018-12-19T01:14:58.380Z,1.70
2018-12-19T01:17:25.767Z,1.70
2018-12-19T01:19:53.223Z,1.60
2018-12-19T01:22:20.638Z,1.60
2018-12-19T01:24:48.224Z,1.70
2018-12-19T01:27:15.852Z,1.60
2018-12-19T01:29:43.264Z,1.70
2018-12-19T01:32:10.808Z,1.60
2018-12-19T01:34:38.313Z,1.60
2018-12-19T01:37:05.736Z,1.60
2018-12-19T01:39:33.135Z,1.70
2018-12-19T01:42:00.567Z,1.80
2018-12-19T01:44:28.024Z,1.90
2018-12-19T01:46:55.439Z,1.90
2018-12-19T01:49:22.831Z,1.80
2018-12-19T01:51:50.366Z,1.80
2018-12-19T01:54:17.824Z,1.80
2018-12-19T01:56:45.369Z,1.80
2018-12-19T01:59:12.847Z,1.60
2018-12-19T02:01:40.307Z,1.60
2018-12-19T02:04:07.680Z,1.70
2018-12-19T02:06:35.100Z,1.80
2018-12-19T02:09:04.533Z,1.80
2018-12-19T02:11:31.970Z,1.70
2018-12-19T02:13:59.568Z,1.70
2018-12-19T02:16:26.988Z,1.80
2018-12-19T02:18:54.489Z,1.80
2018-12-19T02:21:21.930Z,1.90
2018-12-19T02:23:49.376Z,1.90
2018-12-19T02:26:16.775Z,1.90
2018-12-19T02:28:44.143Z,1.90
2018-12-19T02:31:11.588Z,1.90
2018-12-19T02:33:38.975Z,1.90
2018-12-19T02:36:06.404Z,1.90
2018-12-19T02:38:33.778Z,1.80
2018-12-19T02:41:01.201Z,1.80
2018-12-19T02:43:28.600Z,1.90
2018-12-19T02:45:56.076Z,1.90
2018-12-19T02:48:23.448Z,1.80
2018-12-19T02:50:50.987Z,1.80
2018-12-19T02:53:18.378Z,1.90
2018-12-19T02:55:45.852Z,1.80
2018-12-19T02:58:13.240Z,1.70
2018-12-19T03:00:40.665Z,1.80
2018-12-19T03:03:08.041Z,1.80
2018-12-19T03:05:35.560Z,1.80
2018-12-19T03:08:03.167Z,1.80
2018-12-19T03:10:31.913Z,1.80
2018-12-19T03:12:59.303Z,1.70
2018-12-19T03:15:26.748Z,1.70
2018-12-19T03:17:54.161Z,1.80
2018-12-19T03:20:21.626Z,1.70
2018-12-19T03:22:49.114Z,1.70
2018-12-19T03:25:16.550Z,1.80
2018-12-19T03:27:43.944Z,1.80
2018-12-19T03:30:11.464Z,1.90
2018-12-19T03:32:38.889Z,2.10
2018-12-19T03:35:06.386Z,2.00
2018-12-19T03:37:33.937Z,1.80
2018-12-19T03:40:01.348Z,1.70
2018-12-19T03:42:28.795Z,1.80
2018-12-19T03:44:56.183Z,1.80
2018-12-19T03:47:23.646Z,1.90
2018-12-19T03:49:51.295Z,2.00
2018-12-19T03:52:18.869Z,2.10
2018-12-19T03:54:46.379Z,2.30
2018-12-19T03:57:14.261Z,2.30
2018-12-19T03:59:41.749Z,2.50
2018-12-19T04:02:09.227Z,2.50
2018-12-19T04:04:36.655Z,2.60
2018-12-19T04:07:04.069Z,2.80
2018-12-19T04:09:31.474Z,2.90
2018-12-19T04:11:58.921Z,3.10
2018-12-19T04:14:26.296Z,3.00
2018-12-19T04:16:53.712Z,2.90
2018-12-19T04:19:21.140Z,2.80
2018-12-19T04:21:48.520Z,2.90
2018-12-19T04:24:15.963Z,2.90
2018-12-19T04:26:43.358Z,2.90
2018-12-19T04:29:10.749Z,2.90
2018-12-19T04:31:38.215Z,3.00
2018-12-19T04:34:05.596Z,2.90
2018-12-19T04:36:33.102Z,2.90
2018-12-19T04:39:00.492Z,3.00
2018-12-19T04:41:27.903Z,2.90
2018-12-19T04:43:55.476Z,2.90
2018-12-19T04:46:22.914Z,3.10
2018-12-19T04:48:50.292Z,3.10
2018-12-19T04:51:18.003Z,3.10
2018-12-19T04:53:45.467Z,3.10
2018-12-19T04:56:12.915Z,3.10
2018-12-19T04:58:40.356Z,2.90
2018-12-19T05:01:07.785Z,2.90
2018-12-19T05:03:35.200Z,2.90
2018-12-19T05:06:02.652Z,2.90
2018-12-19T05:08:30.063Z,2.90
2018-12-19T05:10:57.541Z,2.90
2018-12-19T05:13:24.931Z,2.90
2018-12-19T05:15:52.353Z,2.80
2018-12-19T05:18:19.751Z,2.80
2018-12-19T05:20:47.209Z,2.80
2018-12-19T05:23:14.624Z,2.70
2018-12-19T05:25:42.049Z,2.70
2018-12-19T05:28:09.440Z,2.80
2018-12-19T05:30:36.870Z,2.80
2018-12-19T05:33:04.296Z,2.70
2018-12-19T05:35:31.695Z,2.80
2018-12-19T05:37:59.117Z,2.80
2018-12-19T05:40:26.515Z,3.00
2018-12-19T05:42:53.924Z,3.00
2018-12-19T05:45:21.324Z,3.00
2018-12-19T05:47:48.835Z,3.10
2018-12-19T05:50:17.475Z,3.00
2018-12-19T05:52:45.088Z,2.80
2018-12-19T05:55:12.479Z,2.90
2018-12-19T05:57:40.484Z,2.80
2018-12-19T06:00:08.409Z,2.90
2018-12-19T06:02:35.817Z,3.00
2018-12-19T06:05:04.290Z,3.10
2018-12-19T06:07:31.699Z,3.10
2018-12-19T06:09:59.083Z,3.10
2018-12-19T06:12:26.494Z,3.10
2018-12-19T06:14:53.896Z,3.20
2018-12-19T06:17:21.306Z,3.20
2018-12-19T06:19:48.702Z,3.30
2018-12-19T06:22:16.178Z,3.30
2018-12-19T06:24:43.568Z,3.40
2018-12-19T06:27:10.963Z,3.50
2018-12-19T06:29:38.344Z,3.80
2018-12-19T06:32:05.871Z,3.90
2018-12-19T06:34:33.244Z,4.10
2018-12-19T06:37:00.652Z,4.10
2018-12-19T06:39:28.200Z,4.20
2018-12-19T06:41:55.624Z,4.10
2018-12-19T06:44:23.047Z,4.20
2018-12-19T06:46:50.472Z,4.20
2018-12-19T06:49:17.863Z,4.40
2018-12-19T06:51:45.265Z,4.50
2018-12-19T06:54:12.655Z,4.40
2018-12-19T06:56:40.127Z,4.30
2018-12-19T06:59:07.514Z,4.40
2018-12-19T07:01:34.942Z,4.30
2018-12-19T07:04:02.350Z,4.20
2018-12-19T07:06:29.756Z,4.30
2018-12-19T07:08:57.133Z,4.30
2018-12-19T07:11:24.683Z,4.30
2018-12-19T07:13:52.060Z,4.20
2018-12-19T07:16:19.479Z,4.30
2018-12-19T07:18:46.879Z,4.30
2018-12-19T07:21:14.268Z,4.30
2018-12-19T07:23:41.828Z,4.40
2018-12-19T07:26:09.205Z,4.50
2018-12-19T07:28:36.616Z,4.50
2018-12-19T07:31:04.053Z,4.60
2018-12-19T07:33:31.466Z,4.70
2018-12-19T07:35:58.839Z,4.70
2018-12-19T07:38:26.252Z,4.70
2018-12-19T07:40:53.635Z,4.70
2018-12-19T07:43:21.054Z,4.80
2018-12-19T07:45:48.457Z,4.80
2018-12-19T07:48:15.884Z,4.70
2018-12-19T07:50:43.281Z,4.80
2018-12-19T07:53:11.031Z,5.00
2018-12-19T07:55:39.695Z,5.00
2018-12-19T07:58:07.108Z,4.90
2018-12-19T08:00:34.500Z,5.00
2018-12-19T08:03:01.904Z,4.90
2018-12-19T08:05:29.289Z,5.00
2018-12-19T08:07:56.727Z,5.00
2018-12-19T08:10:24.213Z,5.00
2018-12-19T08:12:51.684Z,5.00
2018-12-19T08:15:19.074Z,5.00
2018-12-19T08:17:46.492Z,5.10
2018-12-19T08:20:13.885Z,5.20
2018-12-19T08:22:41.309Z,5.20
2018-12-19T08:25:08.707Z,5.20
2018-12-19T08:27:36.157Z,5.40
2018-12-19T08:30:05.035Z,5.40
2018-12-19T08:32:32.468Z,5.30
2018-12-19T08:34:59.853Z,5.50
2018-12-19T08:37:27.240Z,5.50
2018-12-19T08:39:54.629Z,5.50
2018-12-19T08:42:22.027Z,5.40
2018-12-19T08:44:49.415Z,5.50
2018-12-19T08:47:16.840Z,5.50
2018-12-19T08:49:44.234Z,5.60
2018-12-19T08:52:11.680Z,5.60
2018-12-19T08:54:39.094Z,5.60
2018-12-19T08:57:06.505Z,5.60
2018-12-19T08:59:33.879Z,5.60
2018-12-19T09:02:01.300Z,5.50
2018-12-19T09:04:28.688Z,5.50
2018-12-19T09:06:56.103Z,5.60
2018-12-19T09:09:23.765Z,5.70
2018-12-19T09:11:51.360Z,5.70
2018-12-19T09:14:18.852Z,5.70
2018-12-19T09:16:46.255Z,5.70
2018-12-19T09:19:13.701Z,5.70
2018-12-19T09:21:41.267Z,5.70
2018-12-19T09:24:08.722Z,5.80
2018-12-19T09:26:36.133Z,5.80
2018-12-19T09:29:03.570Z,5.80
2018-12-19T09:31:31.108Z,6.00
2018-12-19T09:33:58.520Z,6.00
2018-12-19T09:36:25.916Z,6.00
2018-12-19T09:38:53.336Z,6.00
2018-12-19T09:41:20.724Z,6.00
2018-12-19T09:43:48.174Z,6.00
2018-12-19T09:46:15.577Z,6.10
2018-12-19T09:48:43.000Z,6.10
2018-12-19T09:51:10.386Z,6.10
2018-12-19T09:53:37.798Z,6.10
2018-12-19T09:56:05.209Z,6.10
2018-12-19T09:58:32.612Z,6.20
2018-12-19T10:01:01.968Z,6.20
2018-12-19T10:03:29.489Z,6.30
2018-12-19T10:05:57.016Z,6.30
2018-12-19T10:08:24.446Z,6.30
2018-12-19T10:10:51.883Z,6.50
2018-12-19T10:13:19.316Z,6.50
2018-12-19T10:15:46.740Z,6.50
2018-12-19T10:18:14.302Z,6.40
2018-12-19T10:20:41.742Z,6.50
2018-12-19T10:23:09.160Z,6.60
2018-12-19T10:25:36.626Z,6.60
2018-12-19T10:28:04.299Z,6.60
2018-12-19T10:30:36.348Z,6.80
2018-12-19T10:33:03.894Z,6.90
2018-12-19T10:35:31.343Z,6.90
2018-12-19T10:37:58.781Z,7.00
2018-12-19T10:40:26.213Z,7.10
2018-12-19T10:42:53.707Z,7.30
2018-12-19T10:45:21.126Z,7.40
2018-12-19T10:47:48.554Z,7.50
2018-12-19T10:50:15.944Z,7.50
2018-12-19T10:52:43.366Z,7.40
2018-12-19T10:55:10.767Z,7.30
2018-12-19T10:57:38.183Z,7.30
2018-12-19T11:00:17.409Z,7.30
2018-12-19T11:02:44.953Z,7.40
2018-12-19T11:05:12.467Z,7.40
2018-12-19T11:07:39.920Z,7.30
2018-12-19T11:10:07.632Z,7.40
2018-12-19T11:12:35.267Z,7.50
2018-12-19T11:15:03.270Z,7.40
2018-12-19T11:17:30.713Z,7.50
2018-12-19T11:19:58.241Z,7.60
2018-12-19T11:22:25.647Z,7.70
2018-12-19T11:24:53.060Z,7.90
2018-12-19T11:27:20.449Z,8.30
2018-12-19T11:29:47.852Z,8.60
2018-12-19T11:32:15.252Z,8.50
2018-12-19T11:34:42.684Z,8.50
2018-12-19T11:37:10.085Z,8.40
2018-12-19T11:39:37.511Z,8.40
2018-12-19T11:42:04.904Z,8.40
2018-12-19T11:44:32.311Z,8.30
2018-12-19T11:46:59.764Z,8.40
2018-12-19T11:49:27.212Z,8.40
2018-12-19T11:51:54.607Z,8.30
2018-12-19T11:54:22.038Z,8.30
2018-12-19T11:56:49.447Z,8.40
2018-12-19T11:59:16.867Z,8.40
2018-12-19T12:01:44.264Z,8.30
2018-12-19T12:04:11.712Z,8.40
2018-12-19T12:06:39.148Z,8.30
2018-12-19T12:09:07.078Z,8.30
2018-12-19T12:11:34.692Z,8.20
2018-12-19T12:14:02.265Z,8.20
2018-12-19T12:16:29.665Z,8.10
2018-12-19T12:18:57.098Z,8.00
2018-12-19T12:21:24.487Z,8.00
2018-12-19T12:23:51.908Z,8.10
2018-12-19T12:26:19.318Z,8.00
2018-12-19T12:28:46.743Z,7.90
2018-12-19T12:31:14.127Z,7.90
2018-12-19T12:33:41.535Z,7.80
2018-12-19T12:36:09.076Z,7.80
2018-12-19T12:38:36.483Z,7.60
2018-12-19T12:41:03.892Z,7.60
2018-12-19T12:43:31.308Z,7.60
2018-12-19T12:45:58.768Z,7.60
2018-12-19T12:48:26.204Z,7.60
2018-12-19T12:50:53.604Z,7.60
2018-12-19T12:53:21.009Z,7.60
2018-12-19T12:55:48.377Z,7.70
2018-12-19T12:58:15.802Z,7.70
2018-12-19T13:00:43.207Z,7.80
2018-12-19T13:03:10.819Z,7.80
2018-12-19T13:05:38.207Z,7.70
2018-12-19T13:08:05.684Z,7.80
2018-12-19T13:10:36.227Z,7.70
2018-12-19T13:13:04.021Z,7.80
2018-12-19T13:15:37.261Z,7.90
2018-12-19T13:18:04.714Z,7.90
2018-12-19T13:20:32.100Z,7.90
2018-12-19T13:22:59.489Z,7.90
2018-12-19T13:25:26.969Z,7.80
2018-12-19T13:27:54.502Z,7.80
2018-12-19T13:30:21.937Z,7.80
2018-12-19T13:32:49.441Z,7.90
2018-12-19T13:35:17.003Z,7.90
2018-12-19T13:37:44.390Z,7.80
2018-12-19T13:40:11.857Z,7.90
2018-12-19T13:42:39.264Z,8.00
2018-12-19T13:45:07.189Z,8.00
2018-12-19T13:47:34.589Z,7.90
2018-12-19T13:50:02.272Z,7.90
2018-12-19T13:52:29.689Z,7.80
2018-12-19T13:54:57.112Z,7.80
2018-12-19T13:57:24.492Z,7.70
2018-12-19T13:59:51.961Z,7.70
2018-12-19T14:02:19.363Z,7.70
2018-12-19T14:04:47.335Z,7.70
2018-12-19T14:07:14.753Z,7.80
2018-12-19T14:09:42.309Z,7.80
2018-12-19T14:12:12.429Z,7.80
2018-12-19T14:14:39.171Z,7.80
2018-12-19T14:17:06.687Z,7.80
2018-12-19T14:19:34.099Z,7.90
2018-12-19T14:22:01.535Z,7.90
2018-12-19T14:24:28.972Z,7.90
2018-12-19T14:26:56.352Z,7.90
2018-12-19T14:29:23.759Z,7.80
2018-12-19T14:31:51.161Z,7.70
2018-12-19T14:34:18.618Z,7.70
2018-12-19T14:36:46.137Z,7.60
2018-12-19T14:39:13.562Z,7.60
2018-12-19T14:41:40.987Z,7.50
2018-12-19T14:44:08.448Z,7.30
2018-12-19T14:46:35.843Z,7.30
2018-12-19T14:49:03.527Z,7.30
2018-12-19T14:51:30.920Z,7.40
2018-12-19T14:53:58.351Z,7.40
2018-12-19T14:56:25.733Z,7.40
2018-12-19T14:58:53.259Z,7.30
2018-12-19T15:01:20.665Z,7.10
2018-12-19T15:03:48.124Z,7.00
2018-12-19T15:06:15.508Z,6.90
2018-12-19T15:08:43.055Z,6.70
2018-12-19T15:11:10.569Z,6.60
2018-12-19T15:13:37.995Z,6.50
2018-12-19T15:16:05.414Z,6.30
2018-12-19T15:18:32.937Z,6.20
2018-12-19T15:21:00.360Z,6.00
2018-12-19T15:23:27.754Z,5.90
2018-12-19T15:25:55.208Z,5.90
2018-12-19T15:28:22.591Z,6.00
2018-12-19T15:30:50.047Z,6.00
2018-12-19T15:33:17.448Z,6.20
2018-12-19T15:35:44.946Z,6.30
2018-12-19T15:38:12.375Z,6.40
2018-12-19T15:40:39.795Z,6.40
2018-12-19T15:43:07.164Z,6.50
2018-12-19T15:45:34.632Z,6.60
2018-12-19T15:48:02.149Z,6.80
2018-12-19T15:50:29.592Z,7.20
2018-12-19T15:52:56.964Z,7.20
2018-12-19T15:55:24.429Z,7.00
2018-12-19T15:57:52.004Z,6.80
2018-12-19T16:00:19.447Z,6.50
2018-12-19T16:02:46.831Z,6.30
2018-12-19T16:05:14.430Z,6.10
2018-12-19T16:07:41.813Z,6.00
2018-12-19T16:10:09.540Z,5.80
2018-12-19T16:12:39.342Z,5.70
2018-12-19T16:15:06.719Z,5.60
2018-12-19T16:17:34.118Z,5.50
2018-12-19T16:20:01.583Z,5.60
2018-12-19T16:22:28.972Z,5.50
2018-12-19T16:24:56.413Z,5.60
2018-12-19T16:27:23.821Z,5.50
2018-12-19T16:29:51.277Z,5.50
2018-12-19T16:32:18.685Z,5.50
2018-12-19T16:34:46.313Z,5.50
2018-12-19T16:37:13.825Z,5.40
2018-12-19T16:39:41.293Z,5.40
2018-12-19T16:42:08.686Z,5.30
2018-12-19T16:44:36.130Z,5.30
2018-12-19T16:47:03.530Z,5.30
2018-12-19T16:49:30.981Z,5.30
2018-12-19T16:51:58.392Z,5.20
2018-12-19T16:54:25.832Z,5.20
2018-12-19T16:56:53.240Z,5.30
2018-12-19T16:59:20.687Z,5.20
2018-12-19T17:01:48.324Z,5.10
2018-12-19T17:04:15.762Z,5.00
2018-12-19T17:06:43.167Z,5.00
2018-12-19T17:09:10.645Z,5.00
2018-12-19T17:11:38.078Z,4.90
2018-12-19T17:14:05.513Z,4.90
2018-12-19T17:16:33.024Z,4.90
2018-12-19T17:19:00.472Z,5.00
2018-12-19T17:21:27.878Z,5.00
2018-12-19T17:23:55.302Z,5.00
2018-12-19T17:26:22.687Z,5.00
2018-12-19T17:28:50.121Z,4.90
2018-12-19T17:31:17.497Z,4.90
2018-12-19T17:33:45.014Z,4.80
2018-12-19T17:36:12.408Z,4.80
2018-12-19T17:38:39.860Z,4.70
2018-12-19T17:41:07.246Z,4.70
2018-12-19T17:43:34.670Z,4.70
2018-12-19T17:46:02.074Z,4.70
2018-12-19T17:48:29.629Z,4.60
2018-12-19T17:50:57.064Z,4.60
2018-12-19T17:53:24.499Z,4.50
2018-12-19T17:55:51.892Z,4.50
2018-12-19T17:58:19.311Z,4.40
2018-12-19T18:00:46.746Z,4.50
2018-12-19T18:03:14.139Z,4.40
2018-12-19T18:05:42.402Z,4.50
2018-12-19T18:08:09.810Z,4.50
2018-12-19T18:10:37.320Z,4.40
2018-12-19T18:13:06.339Z,4.50
2018-12-19T18:15:34.082Z,4.40
2018-12-19T18:18:01.805Z,4.40
2018-12-19T18:20:29.260Z,4.40
2018-12-19T18:22:56.651Z,4.40
2018-12-19T18:25:24.108Z,4.30
2018-12-19T18:27:51.524Z,4.30
2018-12-19T18:30:18.993Z,4.30
2018-12-19T18:32:46.383Z,4.30
2018-12-19T18:35:13.968Z,4.20
2018-12-19T18:37:41.351Z,4.10
2018-12-19T18:40:08.821Z,4.10
2018-12-19T18:42:36.209Z,4.10
2018-12-19T18:45:04.347Z,4.20
2018-12-19T18:47:31.921Z,4.30
2018-12-19T18:49:59.339Z,4.30
2018-12-19T18:52:26.722Z,4.30
2018-12-19T18:54:54.234Z,4.30
2018-12-19T18:57:21.616Z,4.30
2018-12-19T18:59:49.114Z,4.40
2018-12-19T19:02:16.632Z,4.40
2018-12-19T19:04:44.152Z,4.40
2018-12-19T19:07:11.625Z,4.50
2018-12-19T19:09:39.097Z,4.50
2018-12-19T19:12:06.512Z,4.40
2018-12-19T19:14:33.972Z,4.40
2018-12-19T19:17:01.496Z,4.40
2018-12-19T19:19:29.026Z,4.40
2018-12-19T19:21:56.412Z,4.40
2018-12-19T19:24:23.921Z,4.40
2018-12-19T19:26:52.069Z,4.30
2018-12-19T19:29:19.636Z,4.30
2018-12-19T19:31:47.061Z,4.30
2018-12-19T19:34:14.515Z,4.30
2018-12-19T19:36:41.998Z,4.40
2018-12-19T19:39:09.513Z,4.40
2018-12-19T19:41:36.952Z,4.40
2018-12-19T19:44:04.477Z,4.30
2018-12-19T19:46:31.947Z,4.40
2018-12-19T19:48:59.396Z,4.40
2018-12-19T19:51:26.816Z,4.50
2018-12-19T19:53:54.209Z,4.50
2018-12-19T19:56:21.650Z,4.50
2018-12-19T19:58:49.093Z,4.50
2018-12-19T20:01:16.525Z,4.50
2018-12-19T20:03:43.935Z,4.50
2018-12-19T20:06:11.502Z,4.60
2018-12-19T20:08:38.888Z,4.60
2018-12-19T20:11:06.327Z,4.60
2018-12-19T20:13:33.696Z,4.70
2018-12-19T20:16:01.160Z,4.70
2018-12-19T20:18:28.740Z,4.70
2018-12-19T20:20:56.229Z,4.90
2018-12-19T20:23:23.611Z,5.00
2018-12-19T20:25:51.051Z,5.00
2018-12-19T20:28:18.429Z,5.00
2018-12-19T20:30:45.897Z,5.10
2018-12-19T20:33:13.495Z,4.90
2018-12-19T20:35:40.956Z,4.90
2018-12-19T20:38:08.338Z,4.90
2018-12-19T20:40:35.784Z,5.10
2018-12-19T20:43:06.546Z,5.30
2018-12-19T20:45:32.624Z,5.30
2018-12-19T20:48:00.028Z,5.30
2018-12-19T20:50:27.564Z,5.40
2018-12-19T20:52:55.947Z,5.40
2018-12-19T20:55:23.509Z,5.40
2018-12-19T20:57:50.911Z,5.50
2018-12-19T21:00:18.564Z,5.40
2018-12-19T21:02:45.965Z,5.40
2018-12-19T21:05:13.406Z,5.50
2018-12-19T21:07:40.837Z,5.40
2018-12-19T21:10:08.562Z,5.40
2018-12-19T21:12:35.956Z,5.40
2018-12-19T21:15:03.653Z,5.40
2018-12-19T21:17:36.869Z,5.30
2018-12-19T21:20:05.371Z,5.40
2018-12-19T21:22:32.853Z,5.60
2018-12-19T21:25:00.258Z,5.60
2018-12-19T21:27:27.727Z,5.70
2018-12-19T21:29:55.164Z,5.70
2018-12-19T21:32:22.641Z,5.80
2018-12-19T21:34:50.040Z,5.80
2018-12-19T21:37:17.491Z,5.80
2018-12-19T21:39:45.032Z,5.70
2018-12-19T21:42:12.560Z,5.70
2018-12-19T21:44:39.992Z,5.80
2018-12-19T21:47:07.570Z,5.80
2018-12-19T21:49:34.961Z,5.90
2018-12-19T21:52:02.499Z,6.00
2018-12-19T21:54:29.918Z,6.00
2018-12-19T21:56:57.433Z,6.00
2018-12-19T21:59:24.973Z,6.00
2018-12-19T22:01:52.487Z,6.00
2018-12-19T22:04:19.889Z,6.00
2018-12-19T22:06:47.348Z,5.90
2018-12-19T22:09:14.753Z,5.90
2018-12-19T22:11:42.291Z,5.90
2018-12-19T22:14:09.672Z,5.90
2018-12-19T22:16:42.752Z,5.90
2018-12-19T22:19:10.274Z,5.90
2018-12-19T22:21:37.797Z,6.10
2018-12-19T22:24:05.238Z,6.20
2018-12-19T22:26:32.873Z,6.20
2018-12-19T22:29:00.343Z,6.10
2018-12-19T22:31:27.763Z,6.10
2018-12-19T22:33:55.181Z,6.10
2018-12-19T22:36:22.790Z,6.10
2018-12-19T22:38:50.373Z,6.10
2018-12-19T22:41:17.830Z,6.10
2018-12-19T22:43:45.228Z,6.10
2018-12-19T22:46:12.768Z,6.10
2018-12-19T22:48:40.155Z,6.10
2018-12-19T22:51:07.615Z,6.00
2018-12-19T22:53:35.103Z,5.90
2018-12-19T22:56:02.779Z,6.10
2018-12-19T22:58:30.277Z,6.10
2018-12-19T23:01:03.627Z,6.00
2018-12-19T23:03:36.832Z,6.20
2018-12-19T23:06:04.513Z,6.10
2018-12-19T23:08:31.997Z,6.10
2018-12-19T23:10:59.538Z,6.30
2018-12-19T23:13:27.068Z,6.30
2018-12-19T23:15:54.591Z,6.30
2018-12-19T23:18:26.188Z,6.20
2018-12-19T23:20:54.235Z,6.20
2018-12-19T23:23:21.700Z,6.20
2018-12-19T23:25:49.388Z,6.10
2018-12-19T23:28:17.832Z,6.20
2018-12-19T23:30:45.472Z,6.30
2018-12-19T23:33:12.923Z,6.50
2018-12-19T23:35:40.427Z,6.30
2018-12-19T23:38:08.011Z,6.30
2018-12-19T23:40:35.475Z,6.30
2018-12-19T23:43:02.887Z,6.30
2018-12-19T23:45:30.380Z,6.30
2018-12-19T23:47:57.890Z,6.30
2018-12-19T23:50:25.492Z,6.40
2018-12-19T23:52:53.031Z,6.50
2018-12-19T23:55:20.527Z,6.50
2018-12-19T23:57:47.952Z,6.60
